sensor_id;sensor_type;location;lat;lon;timestamp;P1;durP1;ratioP1;P2;durP2;ratioP2
74963;SDS011;63521;51.900;4.748;2023-01-30T00:01:16;12.30;;;5.70;;
74963;SDS011;63521;51.900;4.748;2023-01-30T00:03:42;12.65;;;6.43;;
74963;SDS011;63521;51.900;4.748;2023-01-30T00:06:09;13.10;;;5.88;;
74963;SDS011;63521;51.900;4.748;2023-01-30T00:08:34;10.98;;;5.80;;
74963;SDS011;63521;51.900;4.748;2023-01-30T00:11:03;12.30;;;5.97;;
74963;SDS011;63521;51.900;4.748;2023-01-30T00:13:30;11.70;;;6.43;;
74963;SDS011;63521;51.900;4.748;2023-01-30T00:15:55;12.68;;;5.88;;
74963;SDS011;63521;51.900;4.748;2023-01-30T00:18:20;11.75;;;5.82;;
74963;SDS011;63521;51.900;4.748;2023-01-30T00:20:46;11.75;;;5.70;;
74963;SDS011;63521;51.900;4.748;2023-01-30T00:23:11;10.43;;;5.65;;
74963;SDS011;63521;51.900;4.748;2023-01-30T00:25:37;10.75;;;5.40;;
74963;SDS011;63521;51.900;4.748;2023-01-30T00:28:02;12.48;;;5.72;;
74963;SDS011;63521;51.900;4.748;2023-01-30T00:30:28;12.18;;;4.93;;
74963;SDS011;63521;51.900;4.748;2023-01-30T00:32:54;9.98;;;5.15;;
74963;SDS011;63521;51.900;4.748;2023-01-30T00:35:20;11.95;;;5.07;;
74963;SDS011;63521;51.900;4.748;2023-01-30T00:37:46;8.98;;;4.95;;
74963;SDS011;63521;51.900;4.748;2023-01-30T00:40:11;9.57;;;4.70;;
74963;SDS011;63521;51.900;4.748;2023-01-30T00:42:37;10.70;;;4.53;;
74963;SDS011;63521;51.900;4.748;2023-01-30T00:45:21;9.27;;;4.63;;
74963;SDS011;63521;51.900;4.748;2023-01-30T00:48:05;8.85;;;4.18;;
74963;SDS011;63521;51.900;4.748;2023-01-30T00:50:30;8.50;;;4.05;;
74963;SDS011;63521;51.900;4.748;2023-01-30T00:53:13;8.75;;;4.32;;
74963;SDS011;63521;51.900;4.748;2023-01-30T00:55:39;9.07;;;4.43;;
74963;SDS011;63521;51.900;4.748;2023-01-30T00:58:05;8.93;;;4.22;;
74963;SDS011;63521;51.900;4.748;2023-01-30T01:00:31;7.55;;;4.10;;
74963;SDS011;63521;51.900;4.748;2023-01-30T01:02:56;8.00;;;4.45;;
74963;SDS011;63521;51.900;4.748;2023-01-30T01:05:22;7.18;;;3.83;;
74963;SDS011;63521;51.900;4.748;2023-01-30T01:07:47;7.05;;;3.80;;
74963;SDS011;63521;51.900;4.748;2023-01-30T01:10:13;8.32;;;3.67;;
74963;SDS011;63521;51.900;4.748;2023-01-30T01:12:43;6.22;;;3.90;;
74963;SDS011;63521;51.900;4.748;2023-01-30T01:15:12;7.43;;;3.72;;
74963;SDS011;63521;51.900;4.748;2023-01-30T01:17:39;9.05;;;3.95;;
74963;SDS011;63521;51.900;4.748;2023-01-30T01:20:05;6.90;;;3.88;;
74963;SDS011;63521;51.900;4.748;2023-01-30T01:22:31;8.63;;;3.83;;
74963;SDS011;63521;51.900;4.748;2023-01-30T01:24:56;8.75;;;3.47;;
74963;SDS011;63521;51.900;4.748;2023-01-30T01:27:22;7.22;;;3.67;;
74963;SDS011;63521;51.900;4.748;2023-01-30T01:29:47;7.68;;;3.63;;
74963;SDS011;63521;51.900;4.748;2023-01-30T01:32:12;7.88;;;3.63;;
74963;SDS011;63521;51.900;4.748;2023-01-30T01:34:38;7.95;;;3.47;;
74963;SDS011;63521;51.900;4.748;2023-01-30T01:37:03;6.70;;;3.15;;
74963;SDS011;63521;51.900;4.748;2023-01-30T01:39:29;6.07;;;2.90;;
74963;SDS011;63521;51.900;4.748;2023-01-30T01:42:14;5.70;;;3.13;;
74963;SDS011;63521;51.900;4.748;2023-01-30T01:48:08;7.68;;;3.10;;
74963;SDS011;63521;51.900;4.748;2023-01-30T01:50:48;4.88;;;2.60;;
74963;SDS011;63521;51.900;4.748;2023-01-30T01:53:38;4.28;;;2.28;;
74963;SDS011;63521;51.900;4.748;2023-01-30T01:56:06;4.18;;;2.47;;
74963;SDS011;63521;51.900;4.748;2023-01-30T01:58:36;5.82;;;2.67;;
74963;SDS011;63521;51.900;4.748;2023-01-30T02:01:05;6.82;;;2.58;;
74963;SDS011;63521;51.900;4.748;2023-01-30T02:03:31;6.97;;;2.92;;
74963;SDS011;63521;51.900;4.748;2023-01-30T02:06:00;6.03;;;2.95;;
74963;SDS011;63521;51.900;4.748;2023-01-30T02:08:31;5.40;;;2.45;;
74963;SDS011;63521;51.900;4.748;2023-01-30T02:13:43;4.97;;;2.45;;
74963;SDS011;63521;51.900;4.748;2023-01-30T02:16:09;5.53;;;2.42;;
74963;SDS011;63521;51.900;4.748;2023-01-30T02:18:35;5.70;;;2.47;;
74963;SDS011;63521;51.900;4.748;2023-01-30T02:27:14;7.75;;;2.58;;
74963;SDS011;63521;51.900;4.748;2023-01-30T02:40:40;6.22;;;2.13;;
74963;SDS011;63521;51.900;4.748;2023-01-30T02:43:20;5.35;;;1.98;;
74963;SDS011;63521;51.900;4.748;2023-01-30T02:48:39;4.75;;;2.13;;
74963;SDS011;63521;51.900;4.748;2023-01-30T02:51:12;3.42;;;2.30;;
74963;SDS011;63521;51.900;4.748;2023-01-30T02:53:42;4.72;;;2.08;;
74963;SDS011;63521;51.900;4.748;2023-01-30T02:56:10;4.45;;;2.25;;
74963;SDS011;63521;51.900;4.748;2023-01-30T02:58:39;4.53;;;2.22;;
74963;SDS011;63521;51.900;4.748;2023-01-30T03:06:24;3.92;;;1.85;;
74963;SDS011;63521;51.900;4.748;2023-01-30T03:09:13;4.30;;;1.98;;
74963;SDS011;63521;51.900;4.748;2023-01-30T03:11:48;4.63;;;2.10;;
74963;SDS011;63521;51.900;4.748;2023-01-30T03:14:51;3.33;;;1.75;;
74963;SDS011;63521;51.900;4.748;2023-01-30T03:17:20;3.05;;;1.75;;
74963;SDS011;63521;51.900;4.748;2023-01-30T03:19:47;3.80;;;1.95;;
74963;SDS011;63521;51.900;4.748;2023-01-30T03:22:12;3.78;;;1.75;;
74963;SDS011;63521;51.900;4.748;2023-01-30T03:24:38;3.05;;;1.63;;
74963;SDS011;63521;51.900;4.748;2023-01-30T03:27:08;1.88;;;1.60;;
74963;SDS011;63521;51.900;4.748;2023-01-30T03:29:35;3.22;;;1.90;;
74963;SDS011;63521;51.900;4.748;2023-01-30T03:32:01;3.45;;;2.20;;
74963;SDS011;63521;51.900;4.748;2023-01-30T03:34:27;3.33;;;1.80;;
74963;SDS011;63521;51.900;4.748;2023-01-30T03:36:52;3.00;;;1.77;;
74963;SDS011;63521;51.900;4.748;2023-01-30T03:39:18;3.20;;;1.65;;
74963;SDS011;63521;51.900;4.748;2023-01-30T03:41:43;4.43;;;1.83;;
74963;SDS011;63521;51.900;4.748;2023-01-30T03:44:09;2.80;;;1.70;;
74963;SDS011;63521;51.900;4.748;2023-01-30T03:46:34;2.40;;;1.83;;
74963;SDS011;63521;51.900;4.748;2023-01-30T03:49:00;4.05;;;1.60;;
74963;SDS011;63521;51.900;4.748;2023-01-30T03:51:25;2.70;;;1.40;;
74963;SDS011;63521;51.900;4.748;2023-01-30T03:53:50;4.28;;;1.77;;
74963;SDS011;63521;51.900;4.748;2023-01-30T03:56:16;3.53;;;1.90;;
74963;SDS011;63521;51.900;4.748;2023-01-30T03:58:41;3.75;;;1.67;;
74963;SDS011;63521;51.900;4.748;2023-01-30T04:01:07;3.22;;;1.75;;
74963;SDS011;63521;51.900;4.748;2023-01-30T04:03:32;3.47;;;2.17;;
74963;SDS011;63521;51.900;4.748;2023-01-30T04:05:58;3.08;;;1.65;;
74963;SDS011;63521;51.900;4.748;2023-01-30T04:08:23;6.45;;;1.77;;
74963;SDS011;63521;51.900;4.748;2023-01-30T04:10:48;3.42;;;1.58;;
74963;SDS011;63521;51.900;4.748;2023-01-30T04:13:14;4.22;;;1.95;;
74963;SDS011;63521;51.900;4.748;2023-01-30T04:15:39;3.03;;;1.50;;
74963;SDS011;63521;51.900;4.748;2023-01-30T04:18:05;4.07;;;1.58;;
74963;SDS011;63521;51.900;4.748;2023-01-30T04:20:30;5.55;;;2.03;;
74963;SDS011;63521;51.900;4.748;2023-01-30T04:22:55;5.50;;;1.80;;
74963;SDS011;63521;51.900;4.748;2023-01-30T04:25:21;5.95;;;1.85;;
74963;SDS011;63521;51.900;4.748;2023-01-30T04:27:46;5.50;;;1.80;;
74963;SDS011;63521;51.900;4.748;2023-01-30T04:30:13;4.20;;;1.65;;
74963;SDS011;63521;51.900;4.748;2023-01-30T04:32:38;7.35;;;2.00;;
74963;SDS011;63521;51.900;4.748;2023-01-30T04:35:04;4.07;;;1.60;;
74963;SDS011;63521;51.900;4.748;2023-01-30T04:37:30;2.25;;;1.35;;
74963;SDS011;63521;51.900;4.748;2023-01-30T04:39:55;5.13;;;1.80;;
74963;SDS011;63521;51.900;4.748;2023-01-30T04:42:21;5.30;;;1.80;;
74963;SDS011;63521;51.900;4.748;2023-01-30T04:44:46;4.82;;;1.75;;
74963;SDS011;63521;51.900;4.748;2023-01-30T04:47:12;2.90;;;1.50;;
74963;SDS011;63521;51.900;4.748;2023-01-30T04:49:37;3.10;;;1.50;;
74963;SDS011;63521;51.900;4.748;2023-01-30T04:52:03;4.80;;;1.70;;
74963;SDS011;63521;51.900;4.748;2023-01-30T04:54:28;3.72;;;1.60;;
74963;SDS011;63521;51.900;4.748;2023-01-30T04:56:54;3.45;;;1.40;;
74963;SDS011;63521;51.900;4.748;2023-01-30T04:59:19;4.38;;;1.67;;
74963;SDS011;63521;51.900;4.748;2023-01-30T05:01:45;5.38;;;1.85;;
74963;SDS011;63521;51.900;4.748;2023-01-30T05:04:10;5.53;;;1.52;;
74963;SDS011;63521;51.900;4.748;2023-01-30T05:06:36;5.18;;;1.70;;
74963;SDS011;63521;51.900;4.748;2023-01-30T05:09:01;3.47;;;1.60;;
74963;SDS011;63521;51.900;4.748;2023-01-30T05:11:28;3.55;;;1.52;;
74963;SDS011;63521;51.900;4.748;2023-01-30T05:13:54;4.80;;;1.55;;
74963;SDS011;63521;51.900;4.748;2023-01-30T05:16:20;3.22;;;1.50;;
74963;SDS011;63521;51.900;4.748;2023-01-30T05:18:47;3.85;;;1.52;;
74963;SDS011;63521;51.900;4.748;2023-01-30T05:21:17;1.98;;;1.40;;
74963;SDS011;63521;51.900;4.748;2023-01-30T05:23:43;3.15;;;1.40;;
74963;SDS011;63521;51.900;4.748;2023-01-30T05:26:10;3.03;;;1.30;;
74963;SDS011;63521;51.900;4.748;2023-01-30T05:28:36;4.35;;;1.27;;
74963;SDS011;63521;51.900;4.748;2023-01-30T05:33:28;4.07;;;1.63;;
74963;SDS011;63521;51.900;4.748;2023-01-30T05:35:53;3.10;;;1.60;;
74963;SDS011;63521;51.900;4.748;2023-01-30T05:38:19;4.10;;;1.45;;
74963;SDS011;63521;51.900;4.748;2023-01-30T05:40:46;4.57;;;1.40;;
74963;SDS011;63521;51.900;4.748;2023-01-30T05:43:11;2.40;;;1.13;;
74963;SDS011;63521;51.900;4.748;2023-01-30T05:45:37;2.50;;;1.40;;
74963;SDS011;63521;51.900;4.748;2023-01-30T05:48:02;3.15;;;1.40;;
74963;SDS011;63521;51.900;4.748;2023-01-30T05:50:28;6.50;;;1.52;;
74963;SDS011;63521;51.900;4.748;2023-01-30T05:52:54;6.03;;;1.60;;
74963;SDS011;63521;51.900;4.748;2023-01-30T05:55:19;3.42;;;1.48;;
74963;SDS011;63521;51.900;4.748;2023-01-30T05:57:45;3.00;;;1.25;;
74963;SDS011;63521;51.900;4.748;2023-01-30T06:00:10;4.82;;;1.30;;
74963;SDS011;63521;51.900;4.748;2023-01-30T06:02:36;2.35;;;1.45;;
74963;SDS011;63521;51.900;4.748;2023-01-30T06:05:02;5.75;;;1.30;;
74963;SDS011;63521;51.900;4.748;2023-01-30T06:07:27;4.97;;;1.20;;
74963;SDS011;63521;51.900;4.748;2023-01-30T06:09:52;4.53;;;1.40;;
74963;SDS011;63521;51.900;4.748;2023-01-30T06:12:18;3.63;;;1.20;;
74963;SDS011;63521;51.900;4.748;2023-01-30T06:14:43;3.60;;;1.38;;
74963;SDS011;63521;51.900;4.748;2023-01-30T06:17:09;4.07;;;1.27;;
74963;SDS011;63521;51.900;4.748;2023-01-30T06:19:34;5.90;;;1.70;;
74963;SDS011;63521;51.900;4.748;2023-01-30T06:21:59;3.30;;;1.15;;
74963;SDS011;63521;51.900;4.748;2023-01-30T06:24:25;3.97;;;1.20;;
74963;SDS011;63521;51.900;4.748;2023-01-30T06:26:50;3.58;;;1.20;;
74963;SDS011;63521;51.900;4.748;2023-01-30T06:29:15;3.72;;;1.50;;
74963;SDS011;63521;51.900;4.748;2023-01-30T06:31:41;3.40;;;1.15;;
74963;SDS011;63521;51.900;4.748;2023-01-30T06:34:06;3.75;;;1.05;;
74963;SDS011;63521;51.900;4.748;2023-01-30T06:36:32;1.83;;;1.05;;
74963;SDS011;63521;51.900;4.748;2023-01-30T06:38:57;2.75;;;1.60;;
74963;SDS011;63521;51.900;4.748;2023-01-30T06:41:23;4.97;;;1.60;;
74963;SDS011;63521;51.900;4.748;2023-01-30T06:43:48;3.33;;;1.25;;
74963;SDS011;63521;51.900;4.748;2023-01-30T06:46:13;4.85;;;1.35;;
74963;SDS011;63521;51.900;4.748;2023-01-30T06:48:39;4.43;;;1.30;;
74963;SDS011;63521;51.900;4.748;2023-01-30T06:51:04;6.43;;;1.42;;
74963;SDS011;63521;51.900;4.748;2023-01-30T06:53:30;3.20;;;1.05;;
74963;SDS011;63521;51.900;4.748;2023-01-30T06:55:56;3.30;;;1.10;;
74963;SDS011;63521;51.900;4.748;2023-01-30T06:58:22;4.63;;;1.20;;
74963;SDS011;63521;51.900;4.748;2023-01-30T07:00:48;4.90;;;1.20;;
74963;SDS011;63521;51.900;4.748;2023-01-30T07:03:14;2.70;;;1.20;;
74963;SDS011;63521;51.900;4.748;2023-01-30T07:05:41;4.35;;;1.25;;
74963;SDS011;63521;51.900;4.748;2023-01-30T07:08:07;4.93;;;1.02;;
74963;SDS011;63521;51.900;4.748;2023-01-30T07:10:33;2.88;;;1.23;;
74963;SDS011;63521;51.900;4.748;2023-01-30T07:12:59;7.75;;;1.48;;
74963;SDS011;63521;51.900;4.748;2023-01-30T07:15:25;3.47;;;1.15;;
74963;SDS011;63521;51.900;4.748;2023-01-30T07:17:51;3.92;;;1.20;;
74963;SDS011;63521;51.900;4.748;2023-01-30T07:20:16;3.22;;;1.08;;
74963;SDS011;63521;51.900;4.748;2023-01-30T07:22:42;3.72;;;1.20;;
74963;SDS011;63521;51.900;4.748;2023-01-30T07:25:07;3.40;;;0.90;;
74963;SDS011;63521;51.900;4.748;2023-01-30T07:27:33;3.75;;;1.17;;
74963;SDS011;63521;51.900;4.748;2023-01-30T07:29:58;2.58;;;1.05;;
74963;SDS011;63521;51.900;4.748;2023-01-30T07:32:24;3.53;;;1.08;;
74963;SDS011;63521;51.900;4.748;2023-01-30T07:34:49;4.32;;;1.25;;
74963;SDS011;63521;51.900;4.748;2023-01-30T07:37:15;4.45;;;1.13;;
74963;SDS011;63521;51.900;4.748;2023-01-30T07:39:40;3.58;;;1.05;;
74963;SDS011;63521;51.900;4.748;2023-01-30T07:42:05;5.78;;;1.20;;
74963;SDS011;63521;51.900;4.748;2023-01-30T07:44:31;5.03;;;1.02;;
74963;SDS011;63521;51.900;4.748;2023-01-30T07:46:58;3.58;;;1.02;;
74963;SDS011;63521;51.900;4.748;2023-01-30T07:49:23;3.35;;;1.10;;
74963;SDS011;63521;51.900;4.748;2023-01-30T07:51:49;5.97;;;1.50;;
74963;SDS011;63521;51.900;4.748;2023-01-30T07:54:15;3.60;;;0.95;;
74963;SDS011;63521;51.900;4.748;2023-01-30T07:56:40;2.55;;;1.05;;
74963;SDS011;63521;51.900;4.748;2023-01-30T07:59:05;5.68;;;1.20;;
74963;SDS011;63521;51.900;4.748;2023-01-30T08:01:31;3.55;;;1.17;;
74963;SDS011;63521;51.900;4.748;2023-01-30T08:03:57;2.55;;;0.98;;
74963;SDS011;63521;51.900;4.748;2023-01-30T08:06:22;3.17;;;1.05;;
74963;SDS011;63521;51.900;4.748;2023-01-30T08:08:48;3.40;;;1.13;;
74963;SDS011;63521;51.900;4.748;2023-01-30T08:11:13;5.28;;;1.45;;
74963;SDS011;63521;51.900;4.748;2023-01-30T08:13:39;2.70;;;0.88;;
74963;SDS011;63521;51.900;4.748;2023-01-30T08:16:05;2.08;;;1.02;;
74963;SDS011;63521;51.900;4.748;2023-01-30T08:19:10;7.15;;;1.30;;
74963;SDS011;63521;51.900;4.748;2023-01-30T08:21:35;6.75;;;1.02;;
74963;SDS011;63521;51.900;4.748;2023-01-30T08:24:01;3.33;;;0.95;;
74963;SDS011;63521;51.900;4.748;2023-01-30T08:26:26;3.50;;;1.10;;
74963;SDS011;63521;51.900;4.748;2023-01-30T08:28:51;4.80;;;1.00;;
74963;SDS011;63521;51.900;4.748;2023-01-30T08:31:17;3.22;;;1.10;;
74963;SDS011;63521;51.900;4.748;2023-01-30T08:33:43;7.68;;;1.20;;
74963;SDS011;63521;51.900;4.748;2023-01-30T08:36:08;2.15;;;1.00;;
74963;SDS011;63521;51.900;4.748;2023-01-30T08:38:34;6.32;;;1.17;;
74963;SDS011;63521;51.900;4.748;2023-01-30T08:40:59;6.32;;;1.15;;
74963;SDS011;63521;51.900;4.748;2023-01-30T08:43:25;2.47;;;1.45;;
74963;SDS011;63521;51.900;4.748;2023-01-30T08:45:54;5.07;;;1.45;;
74963;SDS011;63521;51.900;4.748;2023-01-30T08:48:19;4.30;;;1.10;;
74963;SDS011;63521;51.900;4.748;2023-01-30T08:50:45;4.65;;;1.05;;
74963;SDS011;63521;51.900;4.748;2023-01-30T08:53:10;2.63;;;1.10;;
74963;SDS011;63521;51.900;4.748;2023-01-30T08:55:35;7.03;;;1.20;;
74963;SDS011;63521;51.900;4.748;2023-01-30T08:58:01;3.83;;;0.90;;
74963;SDS011;63521;51.900;4.748;2023-01-30T09:00:27;5.93;;;1.10;;
74963;SDS011;63521;51.900;4.748;2023-01-30T09:02:56;3.80;;;1.08;;
74963;SDS011;63521;51.900;4.748;2023-01-30T09:05:22;3.40;;;1.17;;
74963;SDS011;63521;51.900;4.748;2023-01-30T09:07:48;5.47;;;1.33;;
74963;SDS011;63521;51.900;4.748;2023-01-30T09:10:14;5.75;;;1.23;;
74963;SDS011;63521;51.900;4.748;2023-01-30T09:12:40;4.45;;;1.13;;
74963;SDS011;63521;51.900;4.748;2023-01-30T09:15:06;4.72;;;1.10;;
74963;SDS011;63521;51.900;4.748;2023-01-30T09:17:31;6.97;;;1.33;;
74963;SDS011;63521;51.900;4.748;2023-01-30T09:19:57;5.47;;;1.20;;
74963;SDS011;63521;51.900;4.748;2023-01-30T09:22:22;6.68;;;1.10;;
74963;SDS011;63521;51.900;4.748;2023-01-30T09:24:48;2.90;;;0.90;;
74963;SDS011;63521;51.900;4.748;2023-01-30T09:27:13;3.65;;;1.05;;
74963;SDS011;63521;51.900;4.748;2023-01-30T09:29:38;4.90;;;1.33;;
74963;SDS011;63521;51.900;4.748;2023-01-30T09:32:04;6.15;;;1.10;;
74963;SDS011;63521;51.900;4.748;2023-01-30T09:34:29;5.05;;;1.15;;
74963;SDS011;63521;51.900;4.748;2023-01-30T09:36:55;4.72;;;0.90;;
74963;SDS011;63521;51.900;4.748;2023-01-30T09:39:27;5.22;;;1.08;;
74963;SDS011;63521;51.900;4.748;2023-01-30T09:42:29;3.90;;;1.10;;
74963;SDS011;63521;51.900;4.748;2023-01-30T09:47:55;5.57;;;1.15;;
74963;SDS011;63521;51.900;4.748;2023-01-30T09:50:39;5.28;;;0.88;;
74963;SDS011;63521;51.900;4.748;2023-01-30T09:56:17;5.65;;;1.10;;
74963;SDS011;63521;51.900;4.748;2023-01-30T09:58:56;5.75;;;1.15;;
74963;SDS011;63521;51.900;4.748;2023-01-30T10:04:00;6.10;;;1.27;;
74963;SDS011;63521;51.900;4.748;2023-01-30T10:06:29;7.07;;;1.98;;
74963;SDS011;63521;51.900;4.748;2023-01-30T10:09:01;7.10;;;1.08;;
74963;SDS011;63521;51.900;4.748;2023-01-30T10:11:41;6.72;;;1.23;;
74963;SDS011;63521;51.900;4.748;2023-01-30T10:25:02;4.50;;;1.13;;
74963;SDS011;63521;51.900;4.748;2023-01-30T10:27:31;5.60;;;1.38;;
74963;SDS011;63521;51.900;4.748;2023-01-30T10:29:58;7.00;;;1.13;;
74963;SDS011;63521;51.900;4.748;2023-01-30T10:32:28;5.53;;;1.30;;
74963;SDS011;63521;51.900;4.748;2023-01-30T10:34:57;7.22;;;1.13;;
74963;SDS011;63521;51.900;4.748;2023-01-30T10:37:34;5.55;;;1.00;;
74963;SDS011;63521;51.900;4.748;2023-01-30T10:40:11;6.93;;;1.00;;
74963;SDS011;63521;51.900;4.748;2023-01-30T10:42:58;6.60;;;1.02;;
74963;SDS011;63521;51.900;4.748;2023-01-30T10:50:57;3.88;;;0.98;;
74963;SDS011;63521;51.900;4.748;2023-01-30T10:56:31;5.40;;;1.48;;
74963;SDS011;63521;51.900;4.748;2023-01-30T10:59:20;6.30;;;1.20;;
74963;SDS011;63521;51.900;4.748;2023-01-30T11:02:35;3.45;;;1.10;;
74963;SDS011;63521;51.900;4.748;2023-01-30T11:04:43;4.22;;;1.20;;
74963;SDS011;63521;51.900;4.748;2023-01-30T11:07:10;5.90;;;1.10;;
74963;SDS011;63521;51.900;4.748;2023-01-30T11:09:46;7.35;;;1.45;;
74963;SDS011;63521;51.900;4.748;2023-01-30T11:12:12;4.20;;;1.10;;
74963;SDS011;63521;51.900;4.748;2023-01-30T11:14:55;3.10;;;1.00;;
74963;SDS011;63521;51.900;4.748;2023-01-30T11:17:43;6.80;;;1.33;;
74963;SDS011;63521;51.900;4.748;2023-01-30T11:20:13;5.07;;;1.40;;
74963;SDS011;63521;51.900;4.748;2023-01-30T11:22:44;3.78;;;1.10;;
74963;SDS011;63521;51.900;4.748;2023-01-30T11:25:16;7.20;;;1.60;;
74963;SDS011;63521;51.900;4.748;2023-01-30T11:27:49;6.10;;;1.35;;
74963;SDS011;63521;51.900;4.748;2023-01-30T11:30:17;8.00;;;1.30;;
74963;SDS011;63521;51.900;4.748;2023-01-30T11:32:44;6.75;;;1.20;;
74963;SDS011;63521;51.900;4.748;2023-01-30T11:37:41;7.53;;;1.45;;
74963;SDS011;63521;51.900;4.748;2023-01-30T11:42:46;6.85;;;1.30;;
74963;SDS011;63521;51.900;4.748;2023-01-30T11:45:13;5.22;;;1.23;;
74963;SDS011;63521;51.900;4.748;2023-01-30T11:47:45;6.53;;;1.08;;
74963;SDS011;63521;51.900;4.748;2023-01-30T11:50:14;3.92;;;1.30;;
74963;SDS011;63521;51.900;4.748;2023-01-30T11:52:41;4.22;;;1.30;;
74963;SDS011;63521;51.900;4.748;2023-01-30T11:55:09;4.97;;;1.13;;
74963;SDS011;63521;51.900;4.748;2023-01-30T11:57:39;6.05;;;1.52;;
74963;SDS011;63521;51.900;4.748;2023-01-30T12:00:11;5.95;;;1.35;;
74963;SDS011;63521;51.900;4.748;2023-01-30T12:02:41;5.57;;;1.30;;
74963;SDS011;63521;51.900;4.748;2023-01-30T12:05:29;4.53;;;1.00;;
74963;SDS011;63521;51.900;4.748;2023-01-30T12:10:49;4.38;;;0.88;;
74963;SDS011;63521;51.900;4.748;2023-01-30T12:13:21;2.92;;;1.00;;
74963;SDS011;63521;51.900;4.748;2023-01-30T12:16:00;4.85;;;1.08;;
74963;SDS011;63521;51.900;4.748;2023-01-30T12:18:29;3.65;;;1.15;;
74963;SDS011;63521;51.900;4.748;2023-01-30T12:26:23;8.13;;;1.30;;
74963;SDS011;63521;51.900;4.748;2023-01-30T12:28:55;4.78;;;1.10;;
74963;SDS011;63521;51.900;4.748;2023-01-30T12:31:28;5.03;;;1.08;;
74963;SDS011;63521;51.900;4.748;2023-01-30T12:33:56;5.38;;;1.20;;
74963;SDS011;63521;51.900;4.748;2023-01-30T12:52:12;8.30;;;1.35;;
74963;SDS011;63521;51.900;4.748;2023-01-30T12:54:54;2.30;;;1.02;;
74963;SDS011;63521;51.900;4.748;2023-01-30T12:57:32;7.10;;;1.25;;
74963;SDS011;63521;51.900;4.748;2023-01-30T13:13:40;4.65;;;1.20;;
74963;SDS011;63521;51.900;4.748;2023-01-30T13:24:51;7.95;;;1.85;;
74963;SDS011;63521;51.900;4.748;2023-01-30T13:27:23;4.85;;;1.48;;
74963;SDS011;63521;51.900;4.748;2023-01-30T13:29:49;5.90;;;1.70;;
74963;SDS011;63521;51.900;4.748;2023-01-30T13:32:37;6.03;;;1.48;;
74963;SDS011;63521;51.900;4.748;2023-01-30T13:35:18;6.13;;;1.40;;
74963;SDS011;63521;51.900;4.748;2023-01-30T13:37:46;5.22;;;1.75;;
74963;SDS011;63521;51.900;4.748;2023-01-30T13:40:15;8.00;;;1.63;;
74963;SDS011;63521;51.900;4.748;2023-01-30T13:45:20;8.00;;;1.40;;
74963;SDS011;63521;51.900;4.748;2023-01-30T13:50:44;6.75;;;1.83;;
74963;SDS011;63521;51.900;4.748;2023-01-30T13:53:24;6.15;;;1.77;;
74963;SDS011;63521;51.900;4.748;2023-01-30T14:00:52;6.47;;;1.65;;
74963;SDS011;63521;51.900;4.748;2023-01-30T14:03:25;6.18;;;1.88;;
74963;SDS011;63521;51.900;4.748;2023-01-30T14:16:40;3.67;;;1.40;;
74963;SDS011;63521;51.900;4.748;2023-01-30T14:21:57;8.20;;;1.30;;
74963;SDS011;63521;51.900;4.748;2023-01-30T14:24:24;5.13;;;1.25;;
74963;SDS011;63521;51.900;4.748;2023-01-30T14:40:00;5.65;;;1.60;;
74963;SDS011;63521;51.900;4.748;2023-01-30T14:42:27;3.72;;;1.13;;
74963;SDS011;63521;51.900;4.748;2023-01-30T14:47:42;6.38;;;1.77;;
74963;SDS011;63521;51.900;4.748;2023-01-30T14:50:18;5.90;;;1.50;;
74963;SDS011;63521;51.900;4.748;2023-01-30T14:52:45;4.25;;;1.13;;
74963;SDS011;63521;51.900;4.748;2023-01-30T14:55:18;7.60;;;1.17;;
74963;SDS011;63521;51.900;4.748;2023-01-30T14:57:52;8.95;;;1.50;;
74963;SDS011;63521;51.900;4.748;2023-01-30T15:00:22;4.90;;;1.67;;
74963;SDS011;63521;51.900;4.748;2023-01-30T15:02:51;6.22;;;1.45;;
74963;SDS011;63521;51.900;4.748;2023-01-30T15:05:24;8.07;;;1.40;;
74963;SDS011;63521;51.900;4.748;2023-01-30T15:07:55;6.20;;;1.08;;
74963;SDS011;63521;51.900;4.748;2023-01-30T15:10:45;7.60;;;1.58;;
74963;SDS011;63521;51.900;4.748;2023-01-30T15:21:43;7.22;;;1.60;;
74963;SDS011;63521;51.900;4.748;2023-01-30T15:27:21;7.18;;;1.30;;
74963;SDS011;63521;51.900;4.748;2023-01-30T15:32:41;10.07;;;1.50;;
74963;SDS011;63521;51.900;4.748;2023-01-30T15:50:38;3.70;;;1.20;;
74963;SDS011;63521;51.900;4.748;2023-01-30T15:53:04;5.30;;;1.65;;
74963;SDS011;63521;51.900;4.748;2023-01-30T15:55:37;3.45;;;1.38;;
74963;SDS011;63521;51.900;4.748;2023-01-30T15:58:04;3.65;;;1.30;;
74963;SDS011;63521;51.900;4.748;2023-01-30T16:00:32;4.82;;;1.70;;
74963;SDS011;63521;51.900;4.748;2023-01-30T16:03:01;7.57;;;1.60;;
74963;SDS011;63521;51.900;4.748;2023-01-30T16:05:28;5.03;;;1.20;;
74963;SDS011;63521;51.900;4.748;2023-01-30T16:07:54;5.53;;;1.42;;
74963;SDS011;63521;51.900;4.748;2023-01-30T16:10:21;5.65;;;1.33;;
74963;SDS011;63521;51.900;4.748;2023-01-30T16:12:49;5.45;;;1.50;;
74963;SDS011;63521;51.900;4.748;2023-01-30T16:15:32;6.60;;;2.20;;
74963;SDS011;63521;51.900;4.748;2023-01-30T16:18:00;5.85;;;1.33;;
74963;SDS011;63521;51.900;4.748;2023-01-30T16:20:28;4.25;;;1.77;;
74963;SDS011;63521;51.900;4.748;2023-01-30T16:22:56;7.00;;;1.70;;
74963;SDS011;63521;51.900;4.748;2023-01-30T16:25:24;8.75;;;1.70;;
74963;SDS011;63521;51.900;4.748;2023-01-30T16:27:50;6.38;;;1.60;;
74963;SDS011;63521;51.900;4.748;2023-01-30T16:30:19;6.93;;;1.75;;
74963;SDS011;63521;51.900;4.748;2023-01-30T16:32:46;8.95;;;1.85;;
74963;SDS011;63521;51.900;4.748;2023-01-30T16:35:15;7.65;;;2.05;;
74963;SDS011;63521;51.900;4.748;2023-01-30T16:37:47;6.03;;;1.40;;
74963;SDS011;63521;51.900;4.748;2023-01-30T16:40:14;4.85;;;1.83;;
74963;SDS011;63521;51.900;4.748;2023-01-30T16:42:59;6.63;;;1.35;;
74963;SDS011;63521;51.900;4.748;2023-01-30T16:45:49;6.97;;;1.38;;
74963;SDS011;63521;51.900;4.748;2023-01-30T16:48:43;4.25;;;1.38;;
74963;SDS011;63521;51.900;4.748;2023-01-30T16:51:19;4.88;;;1.77;;
74963;SDS011;63521;51.900;4.748;2023-01-30T16:53:50;6.07;;;1.60;;
74963;SDS011;63521;51.900;4.748;2023-01-30T16:56:17;7.50;;;1.42;;
74963;SDS011;63521;51.900;4.748;2023-01-30T16:58:45;4.55;;;1.63;;
74963;SDS011;63521;51.900;4.748;2023-01-30T17:01:14;4.30;;;1.40;;
74963;SDS011;63521;51.900;4.748;2023-01-30T17:03:40;5.82;;;1.30;;
74963;SDS011;63521;51.900;4.748;2023-01-30T17:06:08;6.00;;;1.45;;
74963;SDS011;63521;51.900;4.748;2023-01-30T17:16:43;5.13;;;1.90;;
74963;SDS011;63521;51.900;4.748;2023-01-30T17:19:10;3.63;;;1.33;;
74963;SDS011;63521;51.900;4.748;2023-01-30T17:21:43;3.92;;;1.27;;
74963;SDS011;63521;51.900;4.748;2023-01-30T17:24:13;5.40;;;1.48;;
74963;SDS011;63521;51.900;4.748;2023-01-30T17:26:40;6.43;;;1.75;;
74963;SDS011;63521;51.900;4.748;2023-01-30T17:29:05;5.72;;;1.42;;
74963;SDS011;63521;51.900;4.748;2023-01-30T17:31:31;4.43;;;1.42;;
74963;SDS011;63521;51.900;4.748;2023-01-30T17:33:56;7.57;;;1.50;;
74963;SDS011;63521;51.900;4.748;2023-01-30T17:36:23;4.82;;;1.40;;
74963;SDS011;63521;51.900;4.748;2023-01-30T17:38:51;6.70;;;1.50;;
74963;SDS011;63521;51.900;4.748;2023-01-30T17:41:21;7.05;;;1.83;;
74963;SDS011;63521;51.900;4.748;2023-01-30T17:43:48;5.57;;;1.80;;
74963;SDS011;63521;51.900;4.748;2023-01-30T17:46:13;4.10;;;1.33;;
74963;SDS011;63521;51.900;4.748;2023-01-30T17:48:39;1.88;;;1.15;;
74963;SDS011;63521;51.900;4.748;2023-01-30T17:51:05;5.70;;;1.75;;
74963;SDS011;63521;51.900;4.748;2023-01-30T17:53:30;5.65;;;1.50;;
74963;SDS011;63521;51.900;4.748;2023-01-30T17:55:55;4.72;;;1.40;;
74963;SDS011;63521;51.900;4.748;2023-01-30T17:58:21;5.00;;;1.65;;
74963;SDS011;63521;51.900;4.748;2023-01-30T18:00:46;3.17;;;1.88;;
74963;SDS011;63521;51.900;4.748;2023-01-30T18:03:12;5.20;;;1.60;;
74963;SDS011;63521;51.900;4.748;2023-01-30T18:05:38;4.85;;;1.85;;
74963;SDS011;63521;51.900;4.748;2023-01-30T18:08:04;5.20;;;1.67;;